Flight Track Log - Related Links

Times and Time Zones

All times are in EDT time to prevent confusion due to time zone crossing. See the RPA4953 flight status page for this flight to view local times or setup timezone preferences in your user account.

Time Position Orientation Groundspeed Altitude Reporting Facility
EDT Latitude Longitude Course Direction KTS MPH feet Rate Location/Type
Thu 09:22:31 AM 40.6167 -74.2000 303° West 232 267 3,100  Level New TRACON
Thu 09:23:31 AM 40.6500 -74.2667 303° West 265 305 5,800 2,800 Climbing New TRACON
Thu 09:24:31 AM 40.7000 -74.3333 315° West 263 303 8,700 2,211 Climbing New TRACON
Thu 09:25:25 AM 40.7500 -74.3667 333° Northwest 272 313 10,000 650 Climbing New TRACON
Thu 09:26:31 AM 40.8333 -74.4333 329° Northwest 297 342 10,000  Level New TRACON
Thu 09:27:31 AM 40.9000 -74.5000 323° Northwest 292 336 10,000  Level New TRACON
Thu 09:28:25 AM 40.9667 -74.5500 330° Northwest 296 341 10,000 300 Level New TRACON
Thu 09:29:31 AM 41.0333 -74.6000 331° Northwest 297 342 10,600 918 Climbing New TRACON
Thu 09:30:03 AM 41.0650 -74.6375 318° Northwest 297 342 11,500 1,912 Climbing New Center
Thu 09:31:02 AM 41.1378 -74.7025 326° Northwest 291 335 13,500 1,250 Climbing New Center
Thu 09:32:03 AM 41.1789 -74.7847 304° West 286 329 14,000 248 Climbing New Center
Thu 09:33:03 AM 41.2228 -74.8950 298° West 308 354 14,000  Level New Center
Thu 09:34:03 AM 41.2672 -74.9969 300° West 316 364 14,000 500 Level New Center
Thu 09:35:03 AM 41.3075 -75.0906 300° West 316 364 15,000 1,300 Climbing New Center
Thu 09:36:03 AM 41.3481 -75.1817 301° West 305 351 16,600 1,550 Climbing New Center
Thu 09:37:03 AM 41.3919 -75.2842 300° West 295 339 18,100 1,300 Climbing New Center
Thu 09:38:03 AM 41.4244 -75.3636 299° West 295 339 19,200 1,250 Climbing New Center
Thu 09:39:03 AM 41.4625 -75.4522 300° West 290 334 20,600 1,300 Climbing New Center
Thu 09:40:03 AM 41.4628 -75.5492 270° West 266 306 21,800 700 Climbing New Center
Thu 09:41:03 AM 41.4708 -75.6575 276° West 266 306 22,000 100 Climbing New Center
Thu 09:42:03 AM 41.5347 -75.7261 321° Northwest 281 323 22,000 50 Level New Center
Thu 09:43:03 AM 41.5525 -75.8464 281° West 297 342 22,100 850 Climbing New Center
Thu 09:44:03 AM 41.5622 -75.9581 277° West 310 357 23,700 950 Climbing New Center
Thu 09:45:03 AM 41.5719 -76.0669 277° West 305 351 24,000 150 Climbing New Center
Thu 09:46:03 AM 41.5853 -76.1875 278° West 307 353 24,000  Level New Center
Thu 09:47:03 AM 41.5964 -76.3103 277° West 328 377 24,000  Level New Center
Thu 09:48:03 AM 41.6092 -76.4361 278° West 339 390 24,000  Level New Center
Thu 09:49:03 AM 41.6197 -76.5619 276° West 339 390 24,000  Level New Center
Thu 09:50:03 AM 41.6322 -76.6881 278° West 339 390 24,000  Level New Center
Thu 09:52:33 AM 41.6603 -77.0031 277° West 342 394 24,000  Level Cleveland Center
Thu 09:53:33 AM 41.6706 -77.1306 276° West 347 399 24,000  Level Cleveland Center
Thu 09:54:33 AM 41.6825 -77.2578 277° West 347 399 24,000  Level Cleveland Center
Thu 09:55:33 AM 41.6944 -77.3850 277° West 347 399 24,000  Level Cleveland Center
Thu 09:56:33 AM 41.6708 -77.5086 256° West 347 399 24,000  Level Cleveland Center
Thu 09:57:33 AM 41.6300 -77.6217 244° Southwest 338 389 24,000 -250 Level Cleveland Center
Thu 09:58:33 AM 41.5853 -77.7542 246° West 351 404 23,500 -450 Descending Cleveland Center
Thu 09:59:33 AM 41.5425 -77.8781 245° Southwest 358 412 23,100 -250 Descending Cleveland Center
Thu 10:00:33 AM 41.5036 -77.9989 247° West 364 419 23,000 -50 Descending Cleveland Center
Thu 10:01:33 AM 41.4644 -78.1225 247° West 364 419 23,000  Level Cleveland Center
Thu 10:02:33 AM 41.4253 -78.2431 247° West 364 419 23,000  Level Cleveland Center
Thu 10:03:33 AM 41.3861 -78.3664 247° West 364 419 23,000  Level Cleveland Center
Thu 10:04:33 AM 41.3489 -78.4864 248° West 364 419 23,000 -350 Level Cleveland Center
Thu 10:05:33 AM 41.3114 -78.6122 248° West 364 419 22,300 -850 Descending Cleveland Center
Thu 10:06:33 AM 41.2717 -78.7322 246° West 364 419 21,300 -1,000 Descending Cleveland Center
Thu 10:07:33 AM 41.2319 -78.8547 247° West 364 419 20,300 -1,200 Descending Cleveland Center
Thu 10:08:33 AM 41.1961 -78.9633 246° West 364 419 18,900 -1,450 Descending Cleveland Center
Thu 10:09:33 AM 41.1581 -79.0828 247° West 364 419 17,400 -1,650 Descending Cleveland Center
Thu 10:10:33 AM 41.1158 -79.2133 247° West 359 413 15,600 -1,750 Descending Cleveland Center
Thu 10:11:33 AM 41.0775 -79.3269 246° West 359 413 13,900 -1,700 Descending Cleveland Center
Thu 10:12:33 AM 41.0411 -79.4353 246° West 341 392 12,200 -1,700 Descending Cleveland Center
Thu 10:13:33 AM 41.0067 -79.5375 246° West 329 379 10,500 -1,700 Descending Cleveland Center
Thu 10:14:33 AM 40.9719 -79.6206 241° Southwest 301 346 8,800 -1,250 Descending Cleveland Center
Thu 10:15:33 AM 40.9161 -79.6792 218° Southwest 262 302 8,000 -400 Descending Cleveland Center
Thu 10:16:33 AM 40.8583 -79.7375 217° Southwest 262 302 8,000 -50 Level Cleveland Center
Thu 10:17:33 AM 40.8003 -79.7958 217° Southwest 267 307 7,900 -550 Descending Cleveland Center
Thu 10:18:33 AM 40.7444 -79.8569 220° Southwest 267 307 6,900 -900 Descending Cleveland Center
Thu 10:19:33 AM 40.6800 -79.8986 206° Southwest 267 307 6,100 -450 Descending Cleveland Center
Thu 10:20:33 AM 40.6072 -79.9103 187° South 267 307 6,000 -400 Descending Cleveland Center
Thu 10:21:33 AM 40.5364 -79.9219 187° South 267 307 5,300 -500 Descending Cleveland Center
Thu 10:22:33 AM 40.4822 -79.9281 185° South 238 274 5,000 -300 Descending Cleveland Center
Thu 10:24:00 AM 40.4871 -80.0870 272° West  Level Estimated
Thu 10:31:00 AM 40.4915 -80.2329 272° West  Level Estimated
Thu 10:32:00 AM 40.4915 -80.2329 339° North  Level Estimated
Thu 10:33:00 AM 40.4915 -80.2329 339° North  Level Estimated

Login

Don't have an account? Register now (free) for customized features, flight alerts, and more!